HAZ2204 ZGGG-ZSHC
Flight info
| Callsign | HAZ2204 |
|---|---|
| Flight time | N/A |
| Altitude | 37100 |
| Route | BOVMA9 BOVMA W41 OMDUP G471 EGEDA/K0854S1160 G471 PLT/K0856S1130 A599 ELNEX ELNEX13 |
| Aircraft | A20N/M-SDE2E3FGHIRWXY/LB1 |
Departure
| Time | N/A |
|---|---|
| Airport | Guangzhou Baiyun International Airport (ZGGG) |
Arrival
| Time | 2026-05-06 03:23 |
|---|---|
| Airport | Hangzhou Xiaoshan International Airport (ZSHC) |
| Time | Latitude | Longitude | Altitude | Speed | Heading |
|---|---|---|---|---|---|
| 2026-05-06 02:38 | 27.86529 | 117.32220 | 37139 ft | 467 kts | 40° |
| 2026-05-06 02:38 | 27.88800 | 117.34870 | 37133 ft | 466 kts | 40° |
| 2026-05-06 02:39 | 27.93312 | 117.40137 | 37128 ft | 466 kts | 40° |
| 2026-05-06 02:39 | 27.97849 | 117.45441 | 37121 ft | 465 kts | 40° |
| 2026-05-06 02:40 | 28.02317 | 117.50675 | 37111 ft | 464 kts | 40° |
| 2026-05-06 02:40 | 28.06836 | 117.55971 | 37113 ft | 463 kts | 40° |
| 2026-05-06 02:41 | 28.11364 | 117.61269 | 37117 ft | 462 kts | 39° |
| 2026-05-06 02:41 | 28.15868 | 117.66551 | 37111 ft | 463 kts | 40° |
| 2026-05-06 02:42 | 28.20333 | 117.71799 | 37109 ft | 464 kts | 40° |
| 2026-05-06 02:42 | 28.24820 | 117.77081 | 37096 ft | 463 kts | 40° |
| 2026-05-06 02:43 | 28.29311 | 117.82377 | 37096 ft | 463 kts | 40° |
| 2026-05-06 02:43 | 28.33771 | 117.87643 | 37100 ft | 461 kts | 40° |
| 2026-05-06 02:44 | 28.38260 | 117.92951 | 37102 ft | 462 kts | 40° |
| 2026-05-06 02:44 | 28.42598 | 117.98098 | 37096 ft | 462 kts | 41° |
| 2026-05-06 02:45 | 28.47045 | 118.03544 | 37091 ft | 462 kts | 41° |
| 2026-05-06 02:45 | 28.51422 | 118.08939 | 37088 ft | 461 kts | 41° |
| 2026-05-06 02:46 | 28.55814 | 118.14356 | 37092 ft | 461 kts | 41° |
| 2026-05-06 02:46 | 28.60157 | 118.19711 | 37099 ft | 460 kts | 41° |
| 2026-05-06 02:47 | 28.64509 | 118.25085 | 37095 ft | 461 kts | 41° |
| 2026-05-06 02:47 | 28.68837 | 118.30439 | 37091 ft | 460 kts | 41° |
| 2026-05-06 02:48 | 28.73180 | 118.35815 | 37088 ft | 460 kts | 41° |
| 2026-05-06 02:48 | 28.77538 | 118.41218 | 37089 ft | 459 kts | 41° |
| 2026-05-06 02:49 | 28.81860 | 118.46584 | 37089 ft | 458 kts | 41° |
| 2026-05-06 02:49 | 28.86181 | 118.51954 | 37086 ft | 459 kts | 41° |
| 2026-05-06 02:50 | 28.90515 | 118.57347 | 37092 ft | 459 kts | 41° |
| 2026-05-06 02:50 | 28.92687 | 118.60053 | 36907 ft | 460 kts | 41° |
| 2026-05-06 02:50 | 28.94850 | 118.62753 | 36616 ft | 457 kts | 41° |
| 2026-05-06 02:50 | 28.96997 | 118.65434 | 36330 ft | 454 kts | 41° |
| 2026-05-06 02:51 | 28.99128 | 118.68095 | 36041 ft | 451 kts | 41° |
| 2026-05-06 02:51 | 29.01251 | 118.70746 | 35754 ft | 449 kts | 42° |
| 2026-05-06 02:51 | 29.03365 | 118.73388 | 35467 ft | 449 kts | 42° |
| 2026-05-06 02:51 | 29.05467 | 118.76019 | 35189 ft | 448 kts | 42° |
| 2026-05-06 02:52 | 29.07580 | 118.78662 | 34908 ft | 449 kts | 42° |
| 2026-05-06 02:52 | 29.09725 | 118.81348 | 34621 ft | 450 kts | 42° |
| 2026-05-06 02:52 | 29.11836 | 118.83993 | 34341 ft | 450 kts | 42° |
| 2026-05-06 02:52 | 29.13954 | 118.86653 | 34056 ft | 450 kts | 42° |
| 2026-05-06 02:53 | 29.16071 | 118.89311 | 33777 ft | 451 kts | 42° |
| 2026-05-06 02:53 | 29.18193 | 118.91978 | 33498 ft | 452 kts | 42° |
| 2026-05-06 02:53 | 29.20318 | 118.94649 | 33222 ft | 452 kts | 42° |
| 2026-05-06 02:53 | 29.22480 | 118.97371 | 32955 ft | 453 kts | 42° |
| 2026-05-06 02:54 | 29.24601 | 119.00041 | 32697 ft | 453 kts | 42° |
| 2026-05-06 02:54 | 29.26722 | 119.02711 | 32439 ft | 453 kts | 42° |
| 2026-05-06 02:54 | 29.28866 | 119.05415 | 32164 ft | 453 kts | 42° |
| 2026-05-06 02:54 | 29.30983 | 119.08089 | 31682 ft | 454 kts | 42° |
| 2026-05-06 02:55 | 29.33124 | 119.10794 | 30969 ft | 456 kts | 42° |
| 2026-05-06 02:55 | 29.35253 | 119.13483 | 30169 ft | 457 kts | 42° |
| 2026-05-06 02:55 | 29.37370 | 119.16161 | 29343 ft | 457 kts | 42° |
| 2026-05-06 02:55 | 29.39537 | 119.18906 | 28457 ft | 459 kts | 42° |
| 2026-05-06 02:56 | 29.41707 | 119.21654 | 27870 ft | 457 kts | 43° |
| 2026-05-06 02:56 | 29.43849 | 119.24375 | 27612 ft | 456 kts | 43° |
| 2026-05-06 02:56 | 29.45982 | 119.27089 | 27602 ft | 457 kts | 43° |
| 2026-05-06 02:56 | 29.48130 | 119.29824 | 27605 ft | 457 kts | 43° |
| 2026-05-06 02:57 | 29.50286 | 119.32572 | 27606 ft | 456 kts | 43° |
| 2026-05-06 02:57 | 29.52416 | 119.35289 | 27608 ft | 456 kts | 43° |
| 2026-05-06 02:57 | 29.54570 | 119.38033 | 27562 ft | 454 kts | 43° |
| 2026-05-06 02:57 | 29.56693 | 119.40736 | 27030 ft | 452 kts | 43° |
| 2026-05-06 02:58 | 29.58793 | 119.43411 | 26510 ft | 447 kts | 43° |
| 2026-05-06 02:58 | 29.60868 | 119.46091 | 25997 ft | 448 kts | 46° |
| 2026-05-06 02:58 | 29.62462 | 119.49180 | 25470 ft | 457 kts | 64° |
| 2026-05-06 02:58 | 29.63142 | 119.52784 | 24962 ft | 465 kts | 83° |
| 2026-05-06 02:59 | 29.63090 | 119.56529 | 24468 ft | 465 kts | 88° |
| 2026-05-06 02:59 | 29.62937 | 119.60242 | 23961 ft | 461 kts | 88° |
| 2026-05-06 02:59 | 29.63109 | 119.63890 | 23435 ft | 448 kts | 72° |
| 2026-05-06 02:59 | 29.64251 | 119.67180 | 22939 ft | 434 kts | 54° |
| 2026-05-06 03:00 | 29.66050 | 119.69925 | 22461 ft | 428 kts | 46° |
| 2026-05-06 03:00 | 29.67976 | 119.72583 | 21983 ft | 424 kts | 46° |
| 2026-05-06 03:00 | 29.69852 | 119.75175 | 21515 ft | 422 kts | 47° |
| 2026-05-06 03:00 | 29.71730 | 119.77795 | 21004 ft | 419 kts | 47° |
| 2026-05-06 03:01 | 29.73575 | 119.80393 | 20134 ft | 424 kts | 47° |
| 2026-05-06 03:01 | 29.75433 | 119.83016 | 19249 ft | 427 kts | 48° |
| 2026-05-06 03:01 | 29.77308 | 119.85680 | 18560 ft | 424 kts | 49° |
| 2026-05-06 03:01 | 29.79155 | 119.88316 | 17919 ft | 420 kts | 49° |
| 2026-05-06 03:02 | 29.80988 | 119.90928 | 17273 ft | 416 kts | 49° |
| 2026-05-06 03:02 | 29.82796 | 119.93507 | 16604 ft | 412 kts | 49° |
| 2026-05-06 03:02 | 29.84526 | 119.96130 | 15959 ft | 410 kts | 53° |
| 2026-05-06 03:02 | 29.86061 | 119.98879 | 15308 ft | 407 kts | 58° |
| 2026-05-06 03:03 | 29.87443 | 120.01717 | 14734 ft | 402 kts | 60° |
| 2026-05-06 03:03 | 29.88761 | 120.04515 | 14291 ft | 393 kts | 60° |
| 2026-05-06 03:03 | 29.90056 | 120.07272 | 13876 ft | 384 kts | 60° |
| 2026-05-06 03:03 | 29.91330 | 120.09969 | 13456 ft | 376 kts | 60° |
| 2026-05-06 03:04 | 29.92597 | 120.12646 | 13049 ft | 369 kts | 60° |
| 2026-05-06 03:04 | 29.93808 | 120.15205 | 12659 ft | 361 kts | 60° |
| 2026-05-06 03:04 | 29.95010 | 120.17748 | 12235 ft | 356 kts | 60° |
| 2026-05-06 03:04 | 29.96204 | 120.20273 | 11816 ft | 350 kts | 60° |
| 2026-05-06 03:05 | 29.97352 | 120.22705 | 11431 ft | 345 kts | 60° |
| 2026-05-06 03:05 | 29.98506 | 120.25151 | 11040 ft | 339 kts | 60° |
| 2026-05-06 03:05 | 29.99624 | 120.27518 | 10678 ft | 334 kts | 60° |
| 2026-05-06 03:05 | 30.00716 | 120.29913 | 10381 ft | 327 kts | 62° |
| 2026-05-06 03:06 | 30.01747 | 120.32230 | 10069 ft | 320 kts | 62° |
| 2026-05-06 03:06 | 30.02757 | 120.34511 | 9770 ft | 314 kts | 62° |
| 2026-05-06 03:06 | 30.03756 | 120.36757 | 9493 ft | 307 kts | 62° |
| 2026-05-06 03:06 | 30.04737 | 120.38966 | 9196 ft | 301 kts | 62° |
| 2026-05-06 03:07 | 30.05683 | 120.41097 | 8917 ft | 296 kts | 62° |
| 2026-05-06 03:07 | 30.06615 | 120.43192 | 8644 ft | 291 kts | 62° |
| 2026-05-06 03:07 | 30.07526 | 120.45242 | 8367 ft | 285 kts | 62° |
| 2026-05-06 03:07 | 30.08433 | 120.47283 | 8096 ft | 280 kts | 62° |
| 2026-05-06 03:08 | 30.09319 | 120.49276 | 7942 ft | 270 kts | 62° |
| 2026-05-06 03:08 | 30.10159 | 120.51167 | 7892 ft | 256 kts | 62° |
| 2026-05-06 03:08 | 30.10954 | 120.52962 | 7866 ft | 243 kts | 62° |
| 2026-05-06 03:08 | 30.11722 | 120.54692 | 7850 ft | 234 kts | 62° |
| 2026-05-06 03:09 | 30.12447 | 120.56329 | 7843 ft | 221 kts | 62° |
| 2026-05-06 03:09 | 30.13147 | 120.57910 | 7858 ft | 220 kts | 62° |
| 2026-05-06 03:09 | 30.13850 | 120.59500 | 7863 ft | 220 kts | 62° |
| 2026-05-06 03:09 | 30.14542 | 120.61065 | 7865 ft | 218 kts | 62° |
| 2026-05-06 03:10 | 30.15242 | 120.62651 | 7859 ft | 219 kts | 62° |
| 2026-05-06 03:10 | 30.15928 | 120.64202 | 7921 ft | 211 kts | 62° |
| 2026-05-06 03:10 | 30.16570 | 120.65662 | 7891 ft | 195 kts | 62° |
| 2026-05-06 03:10 | 30.17159 | 120.66997 | 7844 ft | 177 kts | 62° |
| 2026-05-06 03:11 | 30.17702 | 120.68228 | 7833 ft | 168 kts | 62° |
| 2026-05-06 03:11 | 30.18239 | 120.69447 | 7777 ft | 170 kts | 62° |
| 2026-05-06 03:11 | 30.18777 | 120.70667 | 7562 ft | 169 kts | 62° |
| 2026-05-06 03:11 | 30.19311 | 120.71874 | 7369 ft | 167 kts | 63° |
| 2026-05-06 03:12 | 30.19835 | 120.73063 | 7180 ft | 166 kts | 63° |
| 2026-05-06 03:12 | 30.20362 | 120.74256 | 6965 ft | 166 kts | 63° |
| 2026-05-06 03:12 | 30.20960 | 120.75397 | 6746 ft | 165 kts | 48° |
| 2026-05-06 03:12 | 30.21882 | 120.76160 | 6513 ft | 165 kts | 23° |
| 2026-05-06 03:13 | 30.23003 | 120.76413 | 6287 ft | 164 kts | 358° |
| 2026-05-06 03:13 | 30.24114 | 120.76115 | 6078 ft | 163 kts | 336° |
| 2026-05-06 03:13 | 30.25146 | 120.75532 | 5887 ft | 163 kts | 332° |
| 2026-05-06 03:13 | 30.26153 | 120.74917 | 5699 ft | 162 kts | 332° |
| 2026-05-06 03:14 | 30.27143 | 120.74317 | 5520 ft | 161 kts | 332° |
| 2026-05-06 03:14 | 30.28116 | 120.73737 | 5331 ft | 152 kts | 332° |
| 2026-05-06 03:14 | 30.29049 | 120.73186 | 5151 ft | 147 kts | 332° |
| 2026-05-06 03:14 | 30.29962 | 120.72649 | 4988 ft | 146 kts | 332° |
| 2026-05-06 03:15 | 30.30868 | 120.72115 | 4822 ft | 145 kts | 333° |
| 2026-05-06 03:15 | 30.31778 | 120.71581 | 4654 ft | 146 kts | 333° |
| 2026-05-06 03:15 | 30.32686 | 120.71048 | 4483 ft | 146 kts | 333° |
| 2026-05-06 03:15 | 30.33600 | 120.70512 | 4310 ft | 146 kts | 333° |
| 2026-05-06 03:16 | 30.34488 | 120.69935 | 4123 ft | 145 kts | 321° |
| 2026-05-06 03:16 | 30.35140 | 120.69039 | 3958 ft | 145 kts | 297° |
| 2026-05-06 03:16 | 30.35316 | 120.67918 | 3768 ft | 146 kts | 263° |
| 2026-05-06 03:16 | 30.35092 | 120.66794 | 3675 ft | 142 kts | 249° |
| 2026-05-06 03:17 | 30.34732 | 120.65727 | 3685 ft | 142 kts | 245° |
| 2026-05-06 03:17 | 30.34332 | 120.64679 | 3685 ft | 141 kts | 244° |
| 2026-05-06 03:17 | 30.33916 | 120.63646 | 3574 ft | 141 kts | 243° |
| 2026-05-06 03:17 | 30.33487 | 120.62620 | 3391 ft | 140 kts | 242° |
| 2026-05-06 03:18 | 30.33050 | 120.61602 | 3209 ft | 139 kts | 241° |
| 2026-05-06 03:18 | 30.32613 | 120.60602 | 3029 ft | 139 kts | 242° |
| 2026-05-06 03:18 | 30.32174 | 120.59609 | 2850 ft | 139 kts | 241° |
| 2026-05-06 03:18 | 30.31732 | 120.58614 | 2671 ft | 138 kts | 240° |
| 2026-05-06 03:19 | 30.31289 | 120.57624 | 2493 ft | 138 kts | 241° |
| 2026-05-06 03:19 | 30.30844 | 120.56628 | 2316 ft | 139 kts | 241° |
| 2026-05-06 03:19 | 30.30396 | 120.55624 | 2138 ft | 139 kts | 241° |
| 2026-05-06 03:19 | 30.29949 | 120.54623 | 1961 ft | 139 kts | 241° |
| 2026-05-06 03:20 | 30.29058 | 120.52623 | 1607 ft | 140 kts | 241° |
| 2026-05-06 03:20 | 30.28609 | 120.51617 | 1427 ft | 139 kts | 242° |
| 2026-05-06 03:20 | 30.28166 | 120.50621 | 1251 ft | 138 kts | 241° |
| 2026-05-06 03:21 | 30.27728 | 120.49634 | 1084 ft | 136 kts | 243° |
| 2026-05-06 03:21 | 30.27296 | 120.48651 | 925 ft | 135 kts | 243° |
| 2026-05-06 03:21 | 30.26877 | 120.47689 | 798 ft | 134 kts | 242° |
| 2026-05-06 03:21 | 30.26439 | 120.46722 | 639 ft | 133 kts | 243° |
| 2026-05-06 03:22 | 30.26005 | 120.45766 | 453 ft | 134 kts | 242° |
| 2026-05-06 03:22 | 30.25573 | 120.44823 | 211 ft | 132 kts | 244° |
| 2026-05-06 03:22 | 30.25158 | 120.43859 | 57 ft | 131 kts | 243° |
| 2026-05-06 03:22 | 30.24778 | 120.42993 | 38 ft | 95 kts | 243° |
| 2026-05-06 03:23 | 30.24551 | 120.42484 | 38 ft | 45 kts | 244° |
| 2026-05-06 03:23 | 30.24438 | 120.42226 | 38 ft | 33 kts | 244° |
| 2026-05-06 03:23 | 30.24340 | 120.42004 | 38 ft | 28 kts | 238° |
| 2026-05-06 03:23 | 30.24204 | 120.41850 | 38 ft | 21 kts | 216° |
| 2026-05-06 03:24 | 30.24145 | 120.41802 | 38 ft | 2 kts | 216° |
| 2026-05-06 03:24 | 30.24132 | 120.41791 | 38 ft | 2 kts | 215° |
| 2026-05-06 03:24 | 30.24128 | 120.41788 | 39 ft | 0 kts | 215° |
| 2026-05-06 03:26 | 30.24126 | 120.41787 | 39 ft | 0 kts | 215° |
| 2026-05-06 03:26 | 30.24118 | 120.41783 | 39 ft | 2 kts | 188° |
| 2026-05-06 03:26 | 30.24092 | 120.41796 | 38 ft | 3 kts | 149° |
| 2026-05-06 03:26 | 30.24073 | 120.41810 | 38 ft | 0 kts | 148° |
| 2026-05-06 03:27 | 30.24067 | 120.41814 | 38 ft | 0 kts | 145° |
| 2026-05-06 03:27 | 30.24060 | 120.41814 | 38 ft | 2 kts | 202° |
| 2026-05-06 03:27 | 30.24046 | 120.41795 | 38 ft | 3 kts | 246° |
| 2026-05-06 03:27 | 30.24027 | 120.41737 | 39 ft | 11 kts | 250° |
| 2026-05-06 03:28 | 30.23994 | 120.41657 | 41 ft | 11 kts | 243° |
| 2026-05-06 03:28 | 30.23960 | 120.41580 | 41 ft | 10 kts | 243° |
| 2026-05-06 03:28 | 30.23924 | 120.41498 | 41 ft | 12 kts | 244° |
| 2026-05-06 03:28 | 30.23884 | 120.41406 | 41 ft | 13 kts | 241° |
| 2026-05-06 03:29 | 30.23838 | 120.41309 | 41 ft | 13 kts | 229° |
| 2026-05-06 03:29 | 30.23765 | 120.41340 | 41 ft | 14 kts | 100° |
| 2026-05-06 03:29 | 30.23802 | 120.41447 | 41 ft | 14 kts | 62° |
| 2026-05-06 03:29 | 30.23851 | 120.41557 | 41 ft | 15 kts | 64° |
| 2026-05-06 03:30 | 30.23899 | 120.41665 | 41 ft | 11 kts | 63° |
| 2026-05-06 03:30 | 30.23936 | 120.41753 | 39 ft | 9 kts | 64° |
| 2026-05-06 03:30 | 30.23949 | 120.41785 | 39 ft | 5 kts | 66° |
| 2026-05-06 03:30 | 30.23969 | 120.41836 | 38 ft | 8 kts | 65° |
| 2026-05-06 03:31 | 30.23998 | 120.41904 | 38 ft | 9 kts | 59° |
| 2026-05-06 03:31 | 30.24036 | 120.41975 | 38 ft | 10 kts | 62° |
| 2026-05-06 03:31 | 30.24072 | 120.42055 | 38 ft | 8 kts | 63° |
| 2026-05-06 03:31 | 30.24099 | 120.42118 | 38 ft | 8 kts | 72° |
| 2026-05-06 03:32 | 30.24071 | 120.42176 | 38 ft | 9 kts | 153° |
| 2026-05-06 03:32 | 30.24014 | 120.42148 | 38 ft | 9 kts | 249° |
| 2026-05-06 03:32 | 30.24064 | 120.42097 | 38 ft | 10 kts | 314° |
| 2026-05-06 03:32 | 30.24053 | 120.42015 | 38 ft | 11 kts | 243° |
| 2026-05-06 03:33 | 30.24015 | 120.41928 | 38 ft | 12 kts | 243° |
| 2026-05-06 03:33 | 30.23978 | 120.41843 | 38 ft | 11 kts | 243° |
| 2026-05-06 03:33 | 30.23941 | 120.41760 | 39 ft | 11 kts | 243° |
| 2026-05-06 03:33 | 30.23905 | 120.41682 | 41 ft | 10 kts | 242° |
| 2026-05-06 03:34 | 30.23855 | 120.41629 | 41 ft | 10 kts | 160° |
| 2026-05-06 03:34 | 30.23800 | 120.41665 | 41 ft | 7 kts | 154° |
| 2026-05-06 03:34 | 30.23793 | 120.41670 | 41 ft | 0 kts | 154° |